createdAt,value
2017-06-05T00:00:19.463Z,0
2017-06-05T00:01:00.357Z,0
2017-06-05T00:01:41.247Z,0
2017-06-05T00:02:22.143Z,0
2017-06-05T00:03:03.026Z,0
2017-06-05T00:03:43.912Z,0
2017-06-05T00:04:24.801Z,0
2017-06-05T00:05:05.690Z,0
2017-06-05T00:05:46.577Z,0
2017-06-05T00:06:27.468Z,0
2017-06-05T00:07:08.360Z,0
2017-06-05T00:07:49.261Z,0
2017-06-05T00:08:30.158Z,0
2017-06-05T00:09:11.047Z,0
2017-06-05T00:09:51.962Z,0
2017-06-05T00:10:32.825Z,0
2017-06-05T00:11:13.737Z,0
2017-06-05T00:11:54.634Z,0
2017-06-05T00:12:35.515Z,0
2017-06-05T00:13:16.399Z,0
2017-06-05T00:13:57.285Z,0
2017-06-05T00:14:38.179Z,0
2017-06-05T00:15:19.052Z,0
2017-06-05T00:15:59.936Z,0
2017-06-05T00:16:40.832Z,0
2017-06-05T00:17:21.796Z,0
2017-06-05T00:18:02.638Z,0
2017-06-05T00:18:43.523Z,0
2017-06-05T00:19:24.419Z,0
2017-06-05T00:20:05.314Z,0
2017-06-05T00:20:46.212Z,0
2017-06-05T00:21:27.108Z,0
2017-06-05T00:22:07.990Z,0
2017-06-05T00:22:48.899Z,0
2017-06-05T00:23:29.791Z,0
2017-06-05T00:24:10.679Z,0
2017-06-05T00:24:51.547Z,0
2017-06-05T00:25:32.424Z,0
2017-06-05T00:26:13.315Z,0
2017-06-05T00:26:54.200Z,0
2017-06-05T00:27:35.109Z,0
2017-06-05T00:28:16.003Z,0
2017-06-05T00:28:56.882Z,0
2017-06-05T00:29:37.780Z,0
2017-06-05T00:30:18.668Z,0
2017-06-05T00:30:59.559Z,0
2017-06-05T00:31:40.450Z,0
2017-06-05T00:32:21.344Z,0
2017-06-05T00:33:02.238Z,0
2017-06-05T00:33:43.133Z,0
2017-06-05T00:34:24.028Z,0
2017-06-05T00:35:04.925Z,0
2017-06-05T00:35:45.834Z,0
2017-06-05T00:36:26.727Z,0
2017-06-05T00:37:07.624Z,0
2017-06-05T00:37:48.519Z,0
2017-06-05T00:38:29.408Z,0
2017-06-05T00:39:10.303Z,0
2017-06-05T00:39:51.188Z,0
2017-06-05T00:40:32.070Z,0
2017-06-05T00:41:12.960Z,0
2017-06-05T00:41:53.849Z,0
2017-06-05T00:42:34.742Z,0
2017-06-05T00:43:15.668Z,0
2017-06-05T00:43:56.590Z,0
2017-06-05T00:44:37.474Z,0
2017-06-05T00:45:18.363Z,0
2017-06-05T00:45:59.266Z,0
2017-06-05T00:46:40.156Z,0
2017-06-05T00:47:21.035Z,0
2017-06-05T00:48:01.920Z,0
2017-06-05T00:48:42.825Z,0
2017-06-05T00:49:23.732Z,0
2017-06-05T00:50:04.629Z,0
2017-06-05T00:50:45.528Z,0
2017-06-05T00:51:26.414Z,0
2017-06-05T00:52:07.317Z,0
2017-06-05T00:52:48.210Z,0
2017-06-05T00:53:29.098Z,0
2017-06-05T00:54:09.991Z,0
2017-06-05T00:54:50.891Z,0
2017-06-05T00:55:31.795Z,0
2017-06-05T00:56:12.679Z,0
2017-06-05T00:56:53.581Z,0
2017-06-05T00:57:34.478Z,0
2017-06-05T00:58:15.362Z,0
2017-06-05T00:58:56.267Z,0
2017-06-05T00:59:37.158Z,0
2017-06-05T01:00:18.082Z,0
2017-06-05T01:00:58.974Z,0
2017-06-05T01:01:39.872Z,0
2017-06-05T01:02:20.767Z,0
2017-06-05T01:03:01.660Z,0
2017-06-05T01:03:42.540Z,0
2017-06-05T01:04:23.427Z,0
2017-06-05T01:05:04.359Z,0
2017-06-05T01:05:45.212Z,0
2017-06-05T01:06:26.093Z,0
2017-06-05T01:07:06.963Z,0
2017-06-05T01:07:47.854Z,0
2017-06-05T01:08:28.737Z,0
2017-06-05T01:09:09.686Z,0
2017-06-05T01:09:50.568Z,0
2017-06-05T01:10:31.459Z,0
2017-06-05T01:11:12.408Z,0
2017-06-05T01:11:53.292Z,0
2017-06-05T01:12:34.191Z,0
2017-06-05T01:13:15.075Z,0
2017-06-05T01:13:55.962Z,0
2017-06-05T01:14:36.859Z,0
2017-06-05T01:15:17.729Z,0
2017-06-05T01:15:58.627Z,0
2017-06-05T01:16:39.526Z,0
2017-06-05T01:17:20.401Z,0
2017-06-05T01:18:01.353Z,0
2017-06-05T01:18:42.245Z,0
2017-06-05T01:19:23.124Z,0
2017-06-05T01:20:04.004Z,0
2017-06-05T01:20:44.902Z,0
2017-06-05T01:21:25.791Z,0
2017-06-05T01:22:06.692Z,0
2017-06-05T01:22:47.569Z,0
2017-06-05T01:23:28.526Z,0
2017-06-05T01:24:09.408Z,0
2017-06-05T01:24:50.292Z,0
2017-06-05T01:25:31.187Z,0
2017-06-05T01:26:12.068Z,0
2017-06-05T01:26:52.949Z,0
2017-06-05T01:27:33.854Z,0
2017-06-05T01:28:14.741Z,0
2017-06-05T01:28:55.630Z,0
2017-06-05T01:29:36.514Z,0
2017-06-05T01:30:17.414Z,0
2017-06-05T01:30:58.292Z,0
2017-06-05T01:31:39.174Z,0
2017-06-05T01:32:20.068Z,0
2017-06-05T01:33:00.960Z,0
2017-06-05T01:33:41.849Z,0
2017-06-05T01:34:22.741Z,0
2017-06-05T01:35:03.641Z,0
2017-06-05T01:35:44.593Z,0
2017-06-05T01:36:25.447Z,0
2017-06-05T01:37:06.334Z,0
2017-06-05T01:37:47.225Z,0
2017-06-05T01:38:28.117Z,0
2017-06-05T01:39:09.005Z,0
2017-06-05T01:39:49.884Z,0
2017-06-05T01:40:30.780Z,0
2017-06-05T01:41:11.665Z,0
2017-06-05T01:41:52.557Z,0
2017-06-05T01:42:33.444Z,0
2017-06-05T01:43:14.334Z,0
2017-06-05T01:43:55.213Z,0
2017-06-05T01:44:36.117Z,0
2017-06-05T01:45:17.004Z,0
2017-06-05T01:45:57.888Z,0
2017-06-05T01:46:38.779Z,0
2017-06-05T01:47:19.674Z,0
2017-06-05T01:48:00.563Z,0
2017-06-05T01:48:41.450Z,0
2017-06-05T01:49:22.350Z,0
2017-06-05T01:50:03.235Z,0
2017-06-05T01:50:44.130Z,0
2017-06-05T01:51:25.017Z,0
2017-06-05T01:52:05.901Z,0
2017-06-05T01:52:46.796Z,0
2017-06-05T01:53:27.688Z,0
2017-06-05T01:54:08.636Z,0
2017-06-05T01:54:49.547Z,0
2017-06-05T01:55:30.427Z,0
2017-06-05T01:56:11.318Z,0
2017-06-05T01:56:52.220Z,0
2017-06-05T01:57:33.106Z,0
2017-06-05T01:58:14.013Z,0
2017-06-05T01:58:54.896Z,0
2017-06-05T01:59:35.781Z,0
2017-06-05T02:00:16.676Z,0
2017-06-05T02:00:57.594Z,0
2017-06-05T02:01:38.460Z,0
2017-06-05T02:02:19.355Z,0
2017-06-05T02:03:00.251Z,0
2017-06-05T02:03:41.146Z,0
2017-06-05T02:04:22.041Z,0
2017-06-05T02:05:02.926Z,0
2017-06-05T02:05:43.813Z,0
2017-06-05T02:06:24.705Z,0
2017-06-05T02:07:05.604Z,0
2017-06-05T02:07:46.491Z,0
2017-06-05T02:08:27.394Z,0
2017-06-05T02:09:08.282Z,0
2017-06-05T02:09:49.171Z,0
2017-06-05T02:10:30.057Z,0
2017-06-05T02:11:10.957Z,0
2017-06-05T02:11:51.849Z,0
2017-06-05T02:12:32.746Z,0
2017-06-05T02:13:13.637Z,0
2017-06-05T02:13:54.528Z,0
2017-06-05T02:14:35.427Z,0
2017-06-05T02:15:16.321Z,0
2017-06-05T02:15:57.219Z,0
2017-06-05T02:16:38.106Z,0
2017-06-05T02:17:19.000Z,0
2017-06-05T02:17:59.892Z,0
2017-06-05T02:18:40.787Z,0
2017-06-05T02:19:21.674Z,0
2017-06-05T02:20:02.587Z,0
2017-06-05T02:20:43.494Z,0
2017-06-05T02:21:24.385Z,0
2017-06-05T02:22:05.307Z,0
2017-06-05T02:22:46.168Z,0
2017-06-05T02:23:27.056Z,0
2017-06-05T02:24:07.943Z,0
2017-06-05T02:24:48.848Z,0
2017-06-05T02:25:29.738Z,0
2017-06-05T02:26:10.628Z,0
2017-06-05T02:26:51.504Z,0
2017-06-05T02:27:32.396Z,0
2017-06-05T02:28:13.289Z,0
2017-06-05T02:28:54.231Z,0
2017-06-05T02:29:35.121Z,0
2017-06-05T02:30:16.020Z,0
2017-06-05T02:30:56.917Z,0
2017-06-05T02:31:37.817Z,0
2017-06-05T02:32:18.701Z,0
2017-06-05T02:32:59.600Z,0
2017-06-05T02:33:40.494Z,0
2017-06-05T02:34:21.379Z,0
2017-06-05T02:35:02.276Z,0
2017-06-05T02:35:43.172Z,0
2017-06-05T02:36:24.059Z,0
2017-06-05T02:37:04.939Z,0
2017-06-05T02:37:45.841Z,0
2017-06-05T02:38:26.729Z,0
2017-06-05T02:39:07.630Z,0
2017-06-05T02:39:48.540Z,0
2017-06-05T02:40:29.400Z,0
2017-06-05T02:41:10.291Z,0
2017-06-05T02:41:51.188Z,0
2017-06-05T02:42:32.079Z,0
2017-06-05T02:43:12.983Z,0
2017-06-05T02:43:53.873Z,0
2017-06-05T02:44:34.778Z,0
2017-06-05T02:45:15.665Z,0
2017-06-05T02:45:57.250Z,0
2017-06-05T02:46:38.137Z,0
2017-06-05T02:47:19.068Z,0
2017-06-05T02:47:59.976Z,0
2017-06-05T02:48:40.911Z,0
2017-06-05T02:49:21.804Z,0
2017-06-05T02:50:02.744Z,0
2017-06-05T02:50:43.633Z,0
2017-06-05T02:51:24.528Z,0
2017-06-05T02:52:05.420Z,0
2017-06-05T02:52:46.310Z,0
2017-06-05T02:53:27.197Z,0
2017-06-05T02:54:08.092Z,0
2017-06-05T02:54:48.984Z,0
2017-06-05T02:55:29.886Z,0
2017-06-05T02:56:10.772Z,0
2017-06-05T02:56:51.661Z,0
2017-06-05T02:57:32.557Z,0
2017-06-05T02:58:13.449Z,5
2017-06-05T02:58:54.393Z,5
2017-06-05T02:59:35.294Z,5
2017-06-05T03:00:16.200Z,5
2017-06-05T03:00:57.075Z,5
2017-06-05T03:01:37.967Z,10
2017-06-05T03:02:18.873Z,10
2017-06-05T03:02:59.759Z,10
2017-06-05T03:03:40.647Z,10
2017-06-05T03:04:21.550Z,10
2017-06-05T03:05:02.436Z,15
2017-06-05T03:05:43.340Z,15
2017-06-05T03:06:24.238Z,15
2017-06-05T03:07:05.133Z,15
2017-06-05T03:07:46.077Z,15
2017-06-05T03:08:26.967Z,15
2017-06-05T03:09:07.861Z,20
2017-06-05T03:09:48.790Z,20
2017-06-05T03:10:29.660Z,20
2017-06-05T03:11:10.545Z,20
2017-06-05T03:11:51.429Z,20
2017-06-05T03:12:32.329Z,20
2017-06-05T03:13:13.214Z,20
2017-06-05T03:13:54.116Z,25
2017-06-05T03:14:35.002Z,20
2017-06-05T03:15:15.889Z,20
2017-06-05T03:15:56.780Z,20
2017-06-05T03:16:37.678Z,20
2017-06-05T03:17:18.571Z,20
2017-06-05T03:17:59.466Z,20
2017-06-05T03:18:40.362Z,20
2017-06-05T03:19:21.241Z,20
2017-06-05T03:20:02.141Z,20
2017-06-05T03:20:43.031Z,20
2017-06-05T03:21:23.922Z,20
2017-06-05T03:22:04.810Z,20
2017-06-05T03:22:45.707Z,20
2017-06-05T03:23:26.594Z,20
2017-06-05T03:24:07.492Z,20
2017-06-05T03:24:48.382Z,20
2017-06-05T03:25:29.276Z,20
2017-06-05T03:26:10.176Z,20
2017-06-05T03:26:51.062Z,20
2017-06-05T03:27:31.954Z,20
2017-06-05T03:28:12.844Z,20
2017-06-05T03:28:53.738Z,20
2017-06-05T03:29:34.635Z,20
2017-06-05T03:30:15.526Z,25
2017-06-05T03:30:56.430Z,25
2017-06-05T03:31:37.342Z,25
2017-06-05T03:32:18.217Z,25
2017-06-05T03:32:59.112Z,25
2017-06-05T03:33:40.013Z,25
2017-06-05T03:34:20.896Z,20
2017-06-05T03:35:01.790Z,20
2017-06-05T03:35:42.693Z,20
2017-06-05T03:36:23.585Z,20
2017-06-05T03:37:04.495Z,20
2017-06-05T03:37:45.369Z,20
2017-06-05T03:38:26.309Z,25
2017-06-05T03:39:07.199Z,25
2017-06-05T03:39:48.098Z,25
2017-06-05T03:40:29.001Z,30
2017-06-05T03:41:09.885Z,30
2017-06-05T03:41:50.809Z,25
2017-06-05T03:42:31.699Z,25
2017-06-05T03:43:12.586Z,25
2017-06-05T03:43:53.475Z,25
2017-06-05T03:44:34.381Z,30
2017-06-05T03:45:15.272Z,30
2017-06-05T03:45:56.162Z,35
2017-06-05T03:46:37.054Z,40
2017-06-05T03:47:18.139Z,40
2017-06-05T03:47:59.090Z,45
2017-06-05T03:48:40.002Z,45
2017-06-05T03:49:20.920Z,45
2017-06-05T03:50:01.815Z,45
2017-06-05T03:50:42.703Z,45
2017-06-05T03:51:23.588Z,45
2017-06-05T03:52:04.479Z,50
2017-06-05T03:52:45.367Z,45
2017-06-05T03:53:26.251Z,45
2017-06-05T03:54:07.140Z,45
2017-06-05T03:54:48.029Z,40
2017-06-05T03:55:28.923Z,35
2017-06-05T03:56:09.835Z,35
2017-06-05T03:56:50.730Z,30
2017-06-05T03:57:31.620Z,30
2017-06-05T03:58:12.509Z,25
2017-06-05T03:58:53.396Z,20
2017-06-05T03:59:34.316Z,15
2017-06-05T04:00:15.159Z,15
2017-06-05T04:00:56.090Z,15
2017-06-05T04:01:36.979Z,15
2017-06-05T04:02:17.884Z,15
2017-06-05T04:02:58.774Z,15
2017-06-05T04:03:39.662Z,15
2017-06-05T04:04:20.547Z,20
2017-06-05T04:05:01.445Z,20
2017-06-05T04:05:42.349Z,20
2017-06-05T04:06:23.261Z,25
2017-06-05T04:07:04.153Z,25
2017-06-05T04:07:45.058Z,25
2017-06-05T04:08:25.964Z,25
2017-06-05T04:09:06.843Z,30
2017-06-05T04:09:47.735Z,35
2017-06-05T04:10:28.620Z,35
2017-06-05T04:11:09.505Z,40
2017-06-05T04:11:50.393Z,45
2017-06-05T04:12:31.273Z,45
2017-06-05T04:13:12.163Z,50
2017-06-05T04:13:53.048Z,55
2017-06-05T04:14:33.950Z,55
2017-06-05T04:15:14.838Z,60
2017-06-05T04:15:55.736Z,65
2017-06-05T04:16:36.641Z,70
2017-06-05T04:17:17.531Z,70
2017-06-05T04:17:58.432Z,65
2017-06-05T04:18:39.312Z,65
2017-06-05T04:19:20.204Z,70
2017-06-05T04:20:01.090Z,75
2017-06-05T04:20:41.996Z,75
2017-06-05T04:21:22.882Z,80
2017-06-05T04:22:03.795Z,85
2017-06-05T04:22:44.700Z,90
2017-06-05T04:23:25.606Z,90
2017-06-05T04:24:06.492Z,90
2017-06-05T04:24:47.396Z,90
2017-06-05T04:25:28.331Z,90
2017-06-05T04:26:09.239Z,90
2017-06-05T04:26:50.143Z,90
2017-06-05T04:27:31.040Z,90
2017-06-05T04:28:11.941Z,95
2017-06-05T04:28:52.826Z,100
2017-06-05T04:29:33.727Z,105
2017-06-05T04:30:14.613Z,110
2017-06-05T04:30:55.536Z,115
2017-06-05T04:31:36.428Z,120
2017-06-05T04:32:17.318Z,125
2017-06-05T04:32:58.209Z,130
2017-06-05T04:33:39.107Z,130
2017-06-05T04:34:19.994Z,130
2017-06-05T04:35:00.911Z,130
2017-06-05T04:35:41.767Z,125
2017-06-05T04:36:22.671Z,125
2017-06-05T04:37:03.564Z,120
2017-06-05T04:37:44.454Z,120
2017-06-05T04:38:25.350Z,115
2017-06-05T04:39:06.251Z,105
2017-06-05T04:39:47.135Z,100
2017-06-05T04:40:28.025Z,90
2017-06-05T04:41:08.933Z,90
2017-06-05T04:41:49.833Z,85
2017-06-05T04:42:30.726Z,90
2017-06-05T04:43:11.636Z,90
2017-06-05T04:43:52.517Z,90
2017-06-05T04:44:33.424Z,90
2017-06-05T04:45:14.305Z,95
2017-06-05T04:45:55.198Z,95
2017-06-05T04:46:36.084Z,100
2017-06-05T04:47:16.989Z,95
2017-06-05T04:48:04.830Z,95
2017-06-05T04:48:45.725Z,95
2017-06-05T04:49:26.607Z,95
2017-06-05T04:50:07.483Z,100
2017-06-05T04:50:48.369Z,105
2017-06-05T04:51:29.255Z,115
2017-06-05T04:52:10.145Z,120
2017-06-05T04:52:51.022Z,130
2017-06-05T04:53:31.930Z,140
2017-06-05T04:54:12.837Z,150
2017-06-05T04:54:53.731Z,160
2017-06-05T04:55:34.640Z,165
2017-06-05T04:56:15.511Z,170
2017-06-05T04:56:56.407Z,175
2017-06-05T04:57:37.332Z,180
2017-06-05T04:58:18.210Z,190
2017-06-05T04:58:59.099Z,200
2017-06-05T04:59:39.974Z,200
2017-06-05T05:00:20.856Z,195
2017-06-05T05:01:01.793Z,205
2017-06-05T05:01:42.650Z,210
2017-06-05T05:02:23.540Z,210
2017-06-05T05:04:33.806Z,205
2017-06-05T05:05:14.698Z,210
2017-06-05T05:05:55.588Z,220
2017-06-05T05:06:36.480Z,220
2017-06-05T05:07:17.357Z,230
2017-06-05T05:07:58.251Z,225
2017-06-05T05:08:39.129Z,235
2017-06-05T05:09:20.018Z,235
2017-06-05T05:10:00.907Z,240
2017-06-05T05:10:41.805Z,240
2017-06-05T05:11:22.727Z,245
2017-06-05T05:12:03.622Z,245
2017-06-05T05:12:44.496Z,245
2017-06-05T05:13:25.371Z,245
2017-06-05T05:14:06.265Z,250
2017-06-05T05:14:47.152Z,245
2017-06-05T05:15:28.031Z,255
2017-06-05T05:16:08.927Z,260
2017-06-05T05:16:49.808Z,275
2017-06-05T05:17:30.682Z,275
2017-06-05T05:18:11.570Z,275
2017-06-05T05:18:52.475Z,275
2017-06-05T05:19:33.317Z,280
2017-06-05T05:20:14.203Z,285
2017-06-05T05:20:55.083Z,295
2017-06-05T05:21:35.965Z,305
2017-06-05T05:22:16.844Z,305
2017-06-05T05:22:57.734Z,310
2017-06-05T05:23:38.617Z,315
2017-06-05T05:24:19.489Z,315
2017-06-05T05:25:00.371Z,320
2017-06-05T05:25:41.246Z,330
2017-06-05T05:26:22.129Z,350
2017-06-05T05:27:03.009Z,355
2017-06-05T05:27:43.892Z,360
2017-06-05T05:28:24.790Z,360
2017-06-05T05:29:05.663Z,365
2017-06-05T05:29:46.552Z,355
2017-06-05T05:30:27.460Z,355
2017-06-05T05:31:08.363Z,345
2017-06-05T05:31:49.246Z,325
2017-06-05T05:32:30.126Z,310
2017-06-05T05:33:11.006Z,295
2017-06-05T05:33:51.893Z,295
2017-06-05T05:34:32.763Z,280
2017-06-05T05:35:13.649Z,275
2017-06-05T05:35:54.529Z,275
2017-06-05T05:36:35.411Z,275
2017-06-05T05:37:16.290Z,275
2017-06-05T05:37:57.170Z,275
2017-06-05T05:38:38.056Z,275
2017-06-05T05:39:18.944Z,275
2017-06-05T05:39:59.829Z,280
2017-06-05T05:40:40.706Z,280
2017-06-05T05:41:21.598Z,275
2017-06-05T05:42:02.483Z,285
2017-06-05T05:42:43.360Z,275
2017-06-05T05:43:24.231Z,270
2017-06-05T05:44:05.122Z,270
2017-06-05T05:44:46.006Z,270
2017-06-05T05:45:26.881Z,265
2017-06-05T05:46:07.765Z,265
2017-06-05T05:46:48.661Z,260
2017-06-05T05:47:29.559Z,255
2017-06-05T05:48:10.475Z,255
2017-06-05T05:48:51.331Z,250
2017-06-05T05:49:32.215Z,250
2017-06-05T05:50:13.108Z,250
2017-06-05T05:50:53.968Z,250
2017-06-05T05:51:34.844Z,255
2017-06-05T05:52:15.725Z,255
2017-06-05T05:52:56.624Z,255
2017-06-05T05:53:37.515Z,255
2017-06-05T05:54:18.395Z,255
2017-06-05T05:54:59.286Z,255
2017-06-05T05:55:40.168Z,260
2017-06-05T05:56:21.048Z,265
2017-06-05T05:57:01.943Z,270
2017-06-05T05:57:42.834Z,275
2017-06-05T05:58:23.724Z,275
2017-06-05T05:59:04.614Z,275
2017-06-05T05:59:45.503Z,300
2017-06-05T06:00:26.387Z,310
2017-06-05T06:01:07.260Z,310
2017-06-05T06:01:48.163Z,315
2017-06-05T06:02:29.105Z,320
2017-06-05T06:03:10.001Z,315
2017-06-05T06:03:50.881Z,310
2017-06-05T06:04:31.777Z,295
2017-06-05T06:05:12.695Z,305
2017-06-05T06:05:53.565Z,290
2017-06-05T06:06:34.456Z,295
2017-06-05T06:07:15.346Z,310
2017-06-05T06:07:56.228Z,310
2017-06-05T06:08:37.104Z,325
2017-06-05T06:09:17.985Z,380
2017-06-05T06:09:58.877Z,400
2017-06-05T06:10:39.771Z,420
2017-06-05T06:11:20.673Z,435
2017-06-05T06:12:01.559Z,450
2017-06-05T06:12:42.444Z,460
2017-06-05T06:13:23.347Z,460
2017-06-05T06:14:04.243Z,465
2017-06-05T06:14:45.130Z,475
2017-06-05T06:15:26.040Z,460
2017-06-05T06:16:06.927Z,485
2017-06-05T06:16:47.806Z,485
2017-06-05T06:17:28.707Z,490
2017-06-05T06:18:09.582Z,490
2017-06-05T06:18:50.471Z,495
2017-06-05T06:19:31.353Z,510
2017-06-05T06:20:12.242Z,515
2017-06-05T06:20:53.126Z,515
2017-06-05T06:21:34.008Z,515
2017-06-05T06:22:14.890Z,505
2017-06-05T06:22:55.772Z,520
2017-06-05T06:23:36.666Z,525
2017-06-05T06:24:17.558Z,530
2017-06-05T06:24:58.424Z,540
2017-06-05T06:25:39.319Z,565
2017-06-05T06:26:20.225Z,580
2017-06-05T06:27:01.114Z,590
2017-06-05T06:27:41.986Z,600
2017-06-05T06:28:22.874Z,620
2017-06-05T06:29:03.762Z,645
2017-06-05T06:29:44.659Z,650
2017-06-05T06:30:25.556Z,665
2017-06-05T06:31:06.448Z,655
2017-06-05T06:31:47.341Z,615
2017-06-05T06:32:28.233Z,655
2017-06-05T06:33:09.124Z,605
2017-06-05T06:33:50.033Z,480
2017-06-05T06:34:30.932Z,955
2017-06-05T06:35:11.822Z,1140
2017-06-05T06:35:52.723Z,1295
2017-06-05T06:36:33.615Z,1405
2017-06-05T06:37:14.506Z,1485
2017-06-05T06:37:55.403Z,1365
2017-06-05T06:38:36.288Z,1340
2017-06-05T06:39:17.185Z,1375
2017-06-05T06:39:58.080Z,1200
2017-06-05T06:40:38.966Z,1310
2017-06-05T06:41:19.856Z,1320
2017-06-05T06:42:00.766Z,1400
2017-06-05T06:42:41.651Z,1615
2017-06-05T06:43:22.552Z,1380
2017-06-05T06:45:36.733Z,1780
2017-06-05T06:46:17.638Z,1135
2017-06-05T06:46:58.520Z,640
2017-06-05T06:47:39.417Z,720
2017-06-05T06:48:20.317Z,475
2017-06-05T06:49:01.215Z,945
2017-06-05T06:49:42.105Z,1600
2017-06-05T06:50:23.000Z,1430
2017-06-05T06:51:03.897Z,515
2017-06-05T06:51:44.798Z,515
2017-06-05T06:52:25.701Z,1825
2017-06-05T06:53:06.591Z,880
2017-06-05T06:53:47.490Z,735
2017-06-05T06:54:28.382Z,1520
2017-06-05T06:55:09.281Z,310
2017-06-05T06:55:50.180Z,270
2017-06-05T06:56:31.074Z,300
2017-06-05T06:57:11.973Z,345
2017-06-05T06:57:52.861Z,380
2017-06-05T06:58:33.747Z,425
2017-06-05T06:59:14.637Z,470
2017-06-05T06:59:55.535Z,540
2017-06-05T07:00:36.434Z,735
2017-06-05T07:01:17.326Z,2155
2017-06-05T07:01:58.216Z,930
2017-06-05T07:02:39.126Z,780
2017-06-05T07:03:20.029Z,805
2017-06-05T07:04:00.921Z,2185
2017-06-05T07:04:41.807Z,2040
2017-06-05T07:05:22.704Z,1050
2017-06-05T07:06:03.597Z,1505
2017-06-05T07:06:44.485Z,1175
2017-06-05T07:07:25.383Z,1020
2017-06-05T07:08:06.263Z,395
2017-06-05T07:08:47.204Z,390
2017-06-05T07:09:28.086Z,420
2017-06-05T07:10:08.977Z,475
2017-06-05T07:10:49.870Z,520
2017-06-05T07:11:30.769Z,600
2017-06-05T07:12:11.668Z,960
2017-06-05T07:12:52.561Z,1480
2017-06-05T07:13:33.438Z,605
2017-06-05T07:14:14.359Z,1710
2017-06-05T07:14:55.259Z,1645
2017-06-05T07:15:36.142Z,1630
2017-06-05T07:16:17.048Z,1730
2017-06-05T07:16:57.942Z,1775
2017-06-05T07:17:38.839Z,1640
2017-06-05T07:18:19.757Z,1590
2017-06-05T07:19:00.637Z,1760
2017-06-05T07:19:41.523Z,1960
2017-06-05T07:20:22.405Z,2020
2017-06-05T07:21:03.318Z,2025
2017-06-05T07:21:44.202Z,2070
2017-06-05T07:22:25.099Z,2095
2017-06-05T07:23:05.995Z,2240
2017-06-05T07:23:46.884Z,2320
2017-06-05T07:24:27.780Z,2315
2017-06-05T07:25:08.681Z,2340
2017-06-05T07:25:49.571Z,2330
2017-06-05T07:26:30.450Z,2320
2017-06-05T07:27:11.354Z,2470
2017-06-05T07:27:52.263Z,2485
2017-06-05T07:28:33.207Z,2265
2017-06-05T07:29:14.086Z,2175
2017-06-05T07:29:54.994Z,1990
2017-06-05T07:30:35.919Z,1790
2017-06-05T07:31:16.816Z,1445
2017-06-05T07:31:57.724Z,2045
2017-06-05T07:32:38.626Z,2310
2017-06-05T07:33:19.520Z,2385
2017-06-05T07:34:00.423Z,2560
2017-06-05T07:34:41.320Z,1995
2017-06-05T07:35:22.220Z,735
2017-06-05T07:36:03.120Z,2325
2017-06-05T07:36:44.016Z,2205
2017-06-05T07:37:24.938Z,1425
2017-06-05T07:38:05.827Z,1640
2017-06-05T07:38:46.733Z,1975
2017-06-05T07:39:27.649Z,1710
2017-06-05T07:40:08.553Z,1420
2017-06-05T07:40:49.446Z,1115
2017-06-05T07:41:30.348Z,670
2017-06-05T07:42:11.256Z,1725
2017-06-05T07:42:52.172Z,1645
2017-06-05T07:43:33.097Z,1600
2017-06-05T07:44:13.991Z,1675
2017-06-05T07:44:54.903Z,1810
2017-06-05T07:45:35.809Z,1710
2017-06-05T07:46:16.707Z,1735
2017-06-05T07:46:57.600Z,1850
2017-06-05T07:47:38.479Z,1490
2017-06-05T07:48:19.383Z,750
2017-06-05T07:49:00.272Z,1635
2017-06-05T07:49:41.158Z,1385
2017-06-05T07:50:22.050Z,1105
2017-06-05T07:51:02.958Z,930
2017-06-05T07:51:43.860Z,845
2017-06-05T07:52:24.755Z,820
2017-06-05T07:53:05.650Z,835
2017-06-05T07:53:46.574Z,825
2017-06-05T07:54:27.481Z,805
2017-06-05T07:55:08.393Z,810
2017-06-05T07:55:49.306Z,790
2017-06-05T07:56:30.194Z,795
2017-06-05T07:57:11.095Z,795
2017-06-05T07:57:52.013Z,775
2017-06-05T07:58:32.904Z,745
2017-06-05T07:59:13.810Z,745
2017-06-05T07:59:54.718Z,745
2017-06-05T08:00:35.612Z,755
2017-06-05T08:01:16.518Z,755
2017-06-05T08:01:57.413Z,765
2017-06-05T08:02:38.321Z,765
2017-06-05T08:03:19.210Z,760
2017-06-05T08:04:00.120Z,755
2017-06-05T08:04:41.021Z,750
2017-06-05T08:05:21.919Z,745
2017-06-05T08:06:02.814Z,730
2017-06-05T08:06:43.721Z,740
2017-06-05T08:07:24.622Z,765
2017-06-05T08:08:05.507Z,775
2017-06-05T08:08:46.422Z,780
2017-06-05T08:09:27.341Z,795
2017-06-05T08:10:08.241Z,825
2017-06-05T08:10:49.160Z,855
2017-06-05T08:11:30.070Z,905
2017-06-05T08:12:10.971Z,1175
2017-06-05T08:12:51.893Z,1610
2017-06-05T08:13:32.794Z,1855
2017-06-05T08:14:13.706Z,2070
2017-06-05T08:14:54.607Z,2135
2017-06-05T08:15:35.509Z,2190
2017-06-05T08:16:16.399Z,2420
2017-06-05T08:16:57.307Z,2690
2017-06-05T08:17:38.217Z,2765
2017-06-05T08:18:19.124Z,2765
2017-06-05T08:19:00.028Z,2685
2017-06-05T08:19:40.927Z,2880
2017-06-05T08:20:21.880Z,2965
2017-06-05T08:21:02.775Z,2925
2017-06-05T08:21:43.683Z,2885
2017-06-05T08:22:24.644Z,3070
2017-06-05T08:23:05.504Z,3255
2017-06-05T08:23:46.406Z,3250
2017-06-05T08:24:27.312Z,3190
2017-06-05T08:25:08.226Z,3110
2017-06-05T08:25:49.118Z,3235
2017-06-05T08:26:30.019Z,3325
2017-06-05T08:27:10.920Z,3400
2017-06-05T08:27:51.825Z,3385
2017-06-05T08:28:32.717Z,3060
2017-06-05T08:29:13.629Z,2825
2017-06-05T08:29:54.527Z,2755
2017-06-05T08:30:35.433Z,2705
2017-06-05T08:31:16.340Z,3075
2017-06-05T08:31:57.247Z,3015
2017-06-05T08:32:38.161Z,2955
2017-06-05T08:33:19.073Z,2740
2017-06-05T08:33:59.984Z,2885
2017-06-05T08:34:40.890Z,2985
2017-06-05T08:35:21.847Z,2925
2017-06-05T08:36:02.756Z,2715
2017-06-05T08:36:43.675Z,2510
2017-06-05T08:37:24.578Z,2525
2017-06-05T08:38:05.486Z,2465
2017-06-05T08:38:46.387Z,3050
2017-06-05T08:39:27.309Z,2925
2017-06-05T08:40:08.229Z,2870
2017-06-05T08:40:49.141Z,2905
2017-06-05T08:41:30.058Z,2615
2017-06-05T08:42:10.959Z,2850
2017-06-05T08:42:51.879Z,2560
2017-06-05T08:43:32.788Z,2855
2017-06-05T08:44:13.700Z,2925
2017-06-05T08:44:54.610Z,3205
2017-06-05T08:45:35.521Z,3080
2017-06-05T08:46:16.436Z,2965
2017-06-05T08:46:57.345Z,3010
2017-06-05T08:47:38.263Z,2995
2017-06-05T08:48:19.178Z,2850
2017-06-05T08:49:00.110Z,2515
2017-06-05T08:49:41.019Z,2475
2017-06-05T08:50:21.931Z,2530
2017-06-05T08:51:02.841Z,2845
2017-06-05T08:51:43.764Z,2810
2017-06-05T08:52:24.690Z,2795
2017-06-05T08:53:05.607Z,2810
2017-06-05T08:53:46.517Z,2790
2017-06-05T08:54:27.429Z,2900
2017-06-05T08:55:08.331Z,2930
2017-06-05T08:55:49.241Z,2755
2017-06-05T08:56:30.151Z,2655
2017-06-05T08:57:11.066Z,2680
2017-06-05T08:57:51.972Z,2700
2017-06-05T08:58:32.871Z,2635
2017-06-05T08:59:13.788Z,2655
2017-06-05T08:59:54.697Z,2690
2017-06-05T09:00:35.605Z,2635
2017-06-05T09:01:16.529Z,2740
2017-06-05T09:01:57.448Z,2865
2017-06-05T09:02:38.349Z,2765
2017-06-05T09:03:19.269Z,2815
2017-06-05T09:04:00.182Z,2945
2017-06-05T09:04:41.087Z,3130
2017-06-05T09:05:21.995Z,3350
2017-06-05T09:06:02.907Z,3395
2017-06-05T09:06:43.820Z,3420
2017-06-05T09:07:24.730Z,3410
2017-06-05T09:08:05.649Z,3430
2017-06-05T09:08:46.601Z,3265
2017-06-05T09:09:27.515Z,2795
2017-06-05T09:10:08.424Z,2510
2017-06-05T09:10:49.357Z,2440
2017-06-05T09:11:30.272Z,2545
2017-06-05T09:12:11.189Z,2670
2017-06-05T09:12:52.114Z,3075
2017-06-05T09:13:33.024Z,2290
2017-06-05T09:14:13.937Z,3075
2017-06-05T09:14:54.839Z,3065
2017-06-05T09:15:35.767Z,2895
2017-06-05T09:16:16.689Z,2975
2017-06-05T09:16:57.606Z,2900
2017-06-05T09:17:38.508Z,2720
2017-06-05T09:18:19.415Z,2825
2017-06-05T09:19:00.333Z,2440
2017-06-05T09:19:41.269Z,2555
2017-06-05T09:20:22.177Z,2360
2017-06-05T09:21:03.111Z,2535
2017-06-05T09:21:44.028Z,2625
2017-06-05T09:22:24.948Z,2795
2017-06-05T09:23:05.869Z,2745
2017-06-05T09:23:46.779Z,2605
2017-06-05T09:24:27.699Z,2430
2017-06-05T09:25:08.616Z,1930
2017-06-05T09:25:49.536Z,2255
2017-06-05T09:26:30.473Z,2480
2017-06-05T09:27:11.387Z,2475
2017-06-05T09:27:52.304Z,2815
2017-06-05T09:28:33.205Z,2905
2017-06-05T09:29:14.114Z,2825
2017-06-05T09:29:55.030Z,2820
2017-06-05T09:30:35.946Z,2875
2017-06-05T09:31:16.861Z,2815
2017-06-05T09:31:57.759Z,3185
2017-06-05T09:32:38.658Z,3150
2017-06-05T09:33:19.571Z,3210
2017-06-05T09:34:00.476Z,3220
2017-06-05T09:34:41.385Z,2735
2017-06-05T09:35:22.291Z,2435
2017-06-05T09:36:03.197Z,1445
2017-06-05T09:36:44.100Z,715
2017-06-05T09:37:25.022Z,685